Terminal Aerodrome Forecast
Issued by NWS Shreveport, LA

Home | Current Version | Previous Version | Text Only | Print | Product List | Glossary On
Versions: 1 2 3 4 5 6 7 8 9 10 11 12 13 14 15 16 17 18
000
FTUS44 KSHV 291731 CCA
TAFELD
TAF COR
KELD 291731Z 2918/3018 18009KT P6SM SCT010 BKN080
     FM292100 VRB04KT P6SM BKN080
     FM300000 VRB03KT P6SM SCT080
     FM301100 VRB03KT P6SM BKN015
     FM301500 VRB04KT P6SM SCT060=

USA.gov is the U.S. government's official web portal to all federal, state and local government web resources and services.